Opdyke, IL (62872)

02:41 AM CST del 22 Febbraio 2017 (GMT -0600)
Spring Garden Lane/Dodds Township | | Change Station

Alt. 186 ft 38.26 °N, 88.87 °W | Updated 26 seconds ago

Nebbia
Nebbia
49.4 °F
Sembra 49 °F
N
0.0
Vento Variabile Vento da SE

Oggi
Massima -- | Minima -- °F
--% Possibilità di precip.
Ieri
Massima -- | Minima -- °F
Precip. -- in
Pressione 29.89 in
Visibilità 3.0 miglia
Nuvole Molto nuvoloso 1900 ft
Raffreddamento del vento 49 °F
Punto di rugiada 49 °F
Umidità 98%
Piovosità 0.00 in
Spessore del manto nevoso Non disponibile.
6:36 AM 5:41 PM
Luna calante, 19% visible
METAR KMVN 220756Z AUTO 00000KT 3SM BR BKN019 09/09 A2989 RMK AO2 SLP122 T00890089
Pressione 29.89 in
Visibilità 3.0 miglia
Nuvole Molto nuvoloso 1900 ft
Raffreddamento del vento 49 °F
Punto di rugiada 49 °F
Umidità 98%
Piovosità 0.00 in
Spessore del manto nevoso Non disponibile.
6:36 AM 5:41 PM
Luna calante, 19% visible
METAR KMVN 220756Z AUTO 00000KT 3SM BR BKN019 09/09 A2989 RMK AO2 SLP122 T00890089

Get Your Daily Forecast Email!

Thanks for signing up!

Be on the lookout for a verification email in your inbox.

You'll start receiving the daily forecast at 8 AM.

×

10-Day Weather Forecast

Almanac

Astronomia

Feb. 22, 2017 Alba Tramonto
Ora attuale
Crepuscolo civile
Crepuscolo nautico
Crepuscolo astronomico
Luna
Estensione della luce visibile
Lunghezza del giorno
Tomorrow will be .
, % of the Moon is Illuminated

Gli estremi di oggi

State Highs State Lows

Community

WunderPhotos

Upload Photos

1,962,540 foto caricate!

WunderBlog® & News

Nearby

Qualità dell'aria

  Qualità dell'aria Indice AQ Inquinante
Not available.

Profondità neve

Stazione Profondità Altitudine

Attività sismica

Città  Distanza Mag. Data & Ora
Minimo Magnitudo Mostrato è 2.5.

Temperature delle acque costiere

Località Temperatura

Stations

Stazioni meteo nelle vicinanze

Ubicazione della stazione Temp. Raffreddamento del vento Punto di rugiada Umidità Vento Precip. Alt. Aggiornato Tipo
                   

Watches & Warnings

There are currently no watches in effect.